createdAt,value
2024-02-19T00:00:33.401Z,23.05
2024-02-19T00:03:04.145Z,23.88
2024-02-19T00:05:31.545Z,23.48
2024-02-19T00:07:58.705Z,24.08
2024-02-19T00:10:27.484Z,24.00
2024-02-19T00:12:54.533Z,24.50
2024-02-19T00:15:21.501Z,23.30
2024-02-19T00:17:48.717Z,23.67
2024-02-19T00:20:16.096Z,23.63
2024-02-19T00:22:43.130Z,21.52
2024-02-19T00:25:10.381Z,22.58
2024-02-19T00:27:38.976Z,22.50
2024-02-19T00:30:07.359Z,22.08
2024-02-19T00:32:35.267Z,22.20
2024-02-19T00:35:02.460Z,22.48
2024-02-19T00:37:29.417Z,22.45
2024-02-19T00:39:56.479Z,22.42
2024-02-19T00:42:23.506Z,22.05
2024-02-19T00:44:51.908Z,22.35
2024-02-19T00:47:18.935Z,21.70
2024-02-19T00:49:46.010Z,24.52
2024-02-19T00:52:13.294Z,23.83
2024-02-19T00:54:40.447Z,23.13
2024-02-19T00:57:07.654Z,22.42
2024-02-19T00:59:34.608Z,22.65
2024-02-19T01:02:04.329Z,21.50
2024-02-19T01:04:31.440Z,22.73
2024-02-19T01:06:58.429Z,21.98
2024-02-19T01:09:25.436Z,23.23
2024-02-19T01:11:52.439Z,22.17
2024-02-19T01:14:19.454Z,22.75
2024-02-19T01:16:47.825Z,21.92
2024-02-19T01:19:16.549Z,22.08
2024-02-19T01:21:44.291Z,21.20
2024-02-19T01:24:11.394Z,20.65
2024-02-19T01:26:38.407Z,23.00
2024-02-19T01:29:05.576Z,22.38
2024-02-19T01:31:33.068Z,21.52
2024-02-19T01:34:00.095Z,22.65
2024-02-19T01:36:28.550Z,23.48
2024-02-19T01:38:55.557Z,22.35
2024-02-19T01:41:22.662Z,23.40
2024-02-19T01:43:49.633Z,23.00
2024-02-19T01:46:17.138Z,22.75
2024-02-19T01:48:47.139Z,23.65
2024-02-19T01:51:16.499Z,21.98
2024-02-19T01:53:45.616Z,22.65
2024-02-19T01:56:12.734Z,21.65
2024-02-19T01:58:39.877Z,22.85
2024-02-19T02:01:07.779Z,22.77
2024-02-19T02:03:36.433Z,22.73
2024-02-19T02:06:03.666Z,22.45
2024-02-19T02:08:30.928Z,23.02
2024-02-19T02:10:59.560Z,23.23
2024-02-19T02:13:26.685Z,22.17
2024-02-19T02:15:53.795Z,21.38
2024-02-19T02:18:21.168Z,20.75
2024-02-19T02:20:48.946Z,19.50
2024-02-19T02:23:16.938Z,20.63
2024-02-19T02:25:44.020Z,19.65
2024-02-19T02:28:12.498Z,18.55
2024-02-19T02:30:39.785Z,18.23
2024-02-19T02:33:07.024Z,16.70
2024-02-19T02:35:35.177Z,16.20
2024-02-19T02:38:02.196Z,14.27
2024-02-19T02:40:29.286Z,13.27
2024-02-19T02:42:56.477Z,13.32
2024-02-19T02:45:25.437Z,12.77
2024-02-19T02:47:52.639Z,12.38
2024-02-19T02:50:19.732Z,11.85
2024-02-19T02:52:46.838Z,13.23
2024-02-19T02:55:14.239Z,13.00
2024-02-19T02:57:41.354Z,12.52
2024-02-19T03:00:09.985Z,12.35
2024-02-19T03:02:38.509Z,12.15
2024-02-19T03:05:06.020Z,12.98
2024-02-19T03:07:33.638Z,12.25
2024-02-19T03:10:00.720Z,11.68
2024-02-19T03:12:27.902Z,10.07
2024-02-19T03:14:55.619Z,9.73
2024-02-19T03:17:22.618Z,8.93
2024-02-19T03:19:51.650Z,9.07
2024-02-19T03:22:18.742Z,8.82
2024-02-19T03:24:46.182Z,8.90
2024-02-19T03:27:13.738Z,7.97
2024-02-19T03:29:40.733Z,7.85
2024-02-19T03:32:08.242Z,8.00
2024-02-19T03:34:35.286Z,8.50
2024-02-19T03:37:04.063Z,7.97
2024-02-19T03:39:31.042Z,8.07
2024-02-19T03:41:58.159Z,8.05
2024-02-19T03:44:25.167Z,8.27
2024-02-19T03:46:52.169Z,7.88
2024-02-19T03:49:19.379Z,7.20
2024-02-19T03:51:46.489Z,7.78
2024-02-19T03:54:15.029Z,8.63
2024-02-19T03:56:42.325Z,8.40
2024-02-19T03:59:09.547Z,8.82
2024-02-19T04:01:38.927Z,9.05
2024-02-19T04:04:06.265Z,9.02
2024-02-19T04:06:33.374Z,9.57
2024-02-19T04:09:00.386Z,9.52
2024-02-19T04:11:28.846Z,9.05
2024-02-19T04:13:55.932Z,9.50
2024-02-19T04:16:23.051Z,9.35
2024-02-19T04:18:50.409Z,9.23
2024-02-19T04:21:17.621Z,8.77
2024-02-19T04:23:45.274Z,8.70
2024-02-19T04:26:12.268Z,8.90
2024-02-19T04:28:40.655Z,9.13
2024-02-19T04:31:07.756Z,9.48
2024-02-19T04:33:34.946Z,10.00
2024-02-19T04:36:02.027Z,9.88
2024-02-19T04:38:29.160Z,10.13
2024-02-19T04:40:56.592Z,9.10
2024-02-19T04:43:24.169Z,10.50
2024-02-19T04:45:52.723Z,9.32
2024-02-19T04:48:19.791Z,9.60
2024-02-19T04:50:46.845Z,9.63
2024-02-19T04:53:19.330Z,8.95
2024-02-19T04:55:46.861Z,10.40
2024-02-19T04:58:13.913Z,9.75
2024-02-19T05:00:42.366Z,9.75
2024-02-19T05:03:11.691Z,9.60
2024-02-19T05:05:39.749Z,10.52
2024-02-19T05:08:07.367Z,9.27
2024-02-19T05:10:34.402Z,9.38
2024-02-19T05:13:01.982Z,10.07
2024-02-19T05:15:29.022Z,9.50
2024-02-19T05:17:56.358Z,9.90
2024-02-19T05:20:27.505Z,9.98
2024-02-19T05:22:55.025Z,11.65
2024-02-19T05:25:22.124Z,9.50
2024-02-19T05:27:49.266Z,9.30
2024-02-19T05:30:17.516Z,9.05
2024-02-19T05:32:44.739Z,8.70
2024-02-19T05:35:11.739Z,7.75
2024-02-19T05:37:40.205Z,7.68
2024-02-19T05:40:08.769Z,7.68
2024-02-19T05:42:35.827Z,8.60
2024-02-19T05:45:02.875Z,8.38
2024-02-19T05:47:30.085Z,7.45
2024-02-19T05:49:57.198Z,7.55
2024-02-19T05:52:24.334Z,7.60
2024-02-19T05:54:53.656Z,7.10
2024-02-19T05:57:20.754Z,7.32
2024-02-19T05:59:47.737Z,7.68
2024-02-19T06:02:14.986Z,6.60
2024-02-19T06:04:42.248Z,6.07
2024-02-19T06:07:09.410Z,6.18
2024-02-19T06:09:36.508Z,6.38
2024-02-19T06:12:06.073Z,6.03
2024-02-19T06:14:33.461Z,6.00
2024-02-19T06:17:00.709Z,5.65
2024-02-19T06:19:27.762Z,5.72
2024-02-19T06:21:54.800Z,5.53
2024-02-19T06:24:21.931Z,5.45
2024-02-19T06:26:49.074Z,6.05
2024-02-19T06:29:17.437Z,6.60
2024-02-19T06:31:47.268Z,5.80
2024-02-19T06:34:14.462Z,5.45
2024-02-19T06:36:41.652Z,28.65
2024-02-19T06:39:09.344Z,14.50
2024-02-19T06:41:36.411Z,90.75
2024-02-19T06:44:03.479Z,15.70
2024-02-19T06:46:31.940Z,6.15
2024-02-19T06:49:01.323Z,6.72
2024-02-19T06:51:28.942Z,6.07
2024-02-19T06:53:55.924Z,7.22
2024-02-19T06:56:23.300Z,8.27
2024-02-19T06:58:50.297Z,6.40
2024-02-19T07:01:17.784Z,5.57
2024-02-19T07:03:46.686Z,5.40
2024-02-19T07:06:17.010Z,5.30
2024-02-19T07:08:44.279Z,5.35
2024-02-19T07:11:11.353Z,5.35
2024-02-19T07:13:41.478Z,5.15
2024-02-19T07:16:08.931Z,4.95
2024-02-19T07:18:36.162Z,4.60
2024-02-19T07:21:05.214Z,4.72
2024-02-19T07:23:32.272Z,4.20
2024-02-19T07:25:59.452Z,4.10
2024-02-19T07:28:27.662Z,4.20
2024-02-19T07:30:54.787Z,2.90
2024-02-19T07:33:22.904Z,2.67
2024-02-19T07:35:50.621Z,2.83
2024-02-19T07:38:19.277Z,3.30
2024-02-19T07:40:46.672Z,3.47
2024-02-19T07:43:16.837Z,3.40
2024-02-19T07:45:43.959Z,3.22
2024-02-19T07:48:12.545Z,3.22
2024-02-19T07:50:39.953Z,3.53
2024-02-19T07:53:06.969Z,3.10
2024-02-19T07:55:39.185Z,3.70
2024-02-19T07:58:06.294Z,3.22
2024-02-19T08:00:33.501Z,3.17
2024-02-19T08:03:00.712Z,3.65
2024-02-19T08:05:27.729Z,3.40
2024-02-19T08:07:55.131Z,3.63
2024-02-19T08:10:22.158Z,3.70
2024-02-19T08:12:50.857Z,3.40
2024-02-19T08:15:18.011Z,3.10
2024-02-19T08:17:46.345Z,3.17
2024-02-19T08:20:13.437Z,3.60
2024-02-19T08:22:41.951Z,3.88
2024-02-19T08:25:11.274Z,3.45
2024-02-19T08:27:38.572Z,3.50
2024-02-19T08:30:08.426Z,3.85
2024-02-19T08:32:35.489Z,4.05
2024-02-19T08:35:02.881Z,3.88
2024-02-19T08:37:30.706Z,3.67
2024-02-19T08:39:57.902Z,3.92
2024-02-19T08:42:25.031Z,3.70
2024-02-19T08:44:52.000Z,3.72
2024-02-19T08:47:20.639Z,3.83
2024-02-19T08:49:47.852Z,3.30
2024-02-19T08:52:15.515Z,3.42
2024-02-19T08:54:42.718Z,3.95
2024-02-19T08:57:10.041Z,3.97
2024-02-19T08:59:38.888Z,4.25
2024-02-19T09:02:06.193Z,4.43
2024-02-19T09:04:35.492Z,3.97
2024-02-19T09:07:02.745Z,4.10
2024-02-19T09:09:30.600Z,4.00
2024-02-19T09:11:57.626Z,4.32
2024-02-19T09:14:27.949Z,4.40
2024-02-19T09:16:57.656Z,4.20
2024-02-19T09:19:24.972Z,4.30
2024-02-19T09:21:53.456Z,4.38
2024-02-19T09:24:20.551Z,5.80
2024-02-19T09:26:47.509Z,6.28
2024-02-19T09:29:16.617Z,4.07
2024-02-19T09:31:44.287Z,5.60
2024-02-19T09:34:11.364Z,4.60
2024-02-19T09:36:38.420Z,3.97
2024-02-19T09:39:07.482Z,3.95
2024-02-19T09:41:34.795Z,3.55
2024-02-19T09:44:01.796Z,4.28
2024-02-19T09:46:28.793Z,6.18
2024-02-19T09:48:58.962Z,15.05
2024-02-19T09:51:33.295Z,7.85
2024-02-19T09:54:06.837Z,4.15
2024-02-19T09:56:35.383Z,3.97
2024-02-19T09:59:02.446Z,3.58
2024-02-19T10:01:29.725Z,3.83
2024-02-19T10:03:57.940Z,4.05
2024-02-19T10:06:33.761Z,3.65
2024-02-19T10:09:08.027Z,4.25
2024-02-19T10:11:37.093Z,3.50
2024-02-19T10:14:04.926Z,3.30
2024-02-19T10:16:32.296Z,4.75
2024-02-19T10:19:06.339Z,4.38
2024-02-19T10:21:34.406Z,3.40
2024-02-19T10:24:01.690Z,3.30
2024-02-19T10:26:28.846Z,3.85
2024-02-19T10:28:58.721Z,3.42
2024-02-19T10:31:27.423Z,3.65
2024-02-19T10:33:54.737Z,3.72
2024-02-19T10:36:23.803Z,3.78
2024-02-19T10:38:51.270Z,4.22
2024-02-19T10:41:19.133Z,3.45
2024-02-19T10:43:46.427Z,4.13
2024-02-19T10:46:21.121Z,5.40
2024-02-19T10:48:49.170Z,3.67
2024-02-19T10:51:19.025Z,4.25
2024-02-19T10:53:46.621Z,4.47
2024-02-19T10:56:17.429Z,4.07
2024-02-19T10:58:54.727Z,3.50
2024-02-19T11:01:24.701Z,3.65
2024-02-19T11:03:52.362Z,3.55
2024-02-19T11:06:24.995Z,3.92
2024-02-19T11:08:56.012Z,3.97
2024-02-19T11:11:23.864Z,3.80
2024-02-19T11:13:51.195Z,3.33
2024-02-19T11:16:19.434Z,3.50
2024-02-19T11:18:51.261Z,3.88
2024-02-19T11:21:19.633Z,3.33
2024-02-19T11:23:46.726Z,4.35
2024-02-19T11:26:14.129Z,4.95
2024-02-19T11:28:41.379Z,3.40
2024-02-19T11:31:10.676Z,3.45
2024-02-19T11:33:38.091Z,3.70
2024-02-19T11:36:08.594Z,3.63
2024-02-19T11:38:36.129Z,3.42
2024-02-19T11:41:05.023Z,3.65
2024-02-19T11:43:32.470Z,3.63
2024-02-19T11:46:00.227Z,3.40
2024-02-19T11:48:27.513Z,4.15
2024-02-19T11:50:54.719Z,3.40
2024-02-19T11:53:24.220Z,3.75
2024-02-19T11:56:02.115Z,3.50
2024-02-19T11:58:29.833Z,5.65
2024-02-19T12:01:00.386Z,4.10
2024-02-19T12:03:28.907Z,3.75
2024-02-19T12:06:01.811Z,4.13
2024-02-19T12:08:31.656Z,3.70
2024-02-19T12:10:59.674Z,3.58
2024-02-19T12:13:27.425Z,4.40
2024-02-19T12:15:54.526Z,4.40
2024-02-19T12:18:21.937Z,3.83
2024-02-19T12:20:49.648Z,4.18
2024-02-19T12:23:16.899Z,5.10
2024-02-19T12:25:45.472Z,4.30
2024-02-19T12:28:12.576Z,4.20
2024-02-19T12:30:39.589Z,5.80
2024-02-19T12:33:08.510Z,5.22
2024-02-19T12:35:37.739Z,6.00
2024-02-19T12:38:06.831Z,5.35
2024-02-19T12:40:34.062Z,6.80
2024-02-19T12:43:03.537Z,9.88
2024-02-19T12:45:30.591Z,5.82
2024-02-19T12:47:57.761Z,7.50
2024-02-19T12:50:25.195Z,5.55
2024-02-19T12:52:52.857Z,4.10
2024-02-19T12:55:20.096Z,5.32
2024-02-19T12:57:47.563Z,34.35
2024-02-19T13:00:16.581Z,4.15
2024-02-19T13:02:43.822Z,4.28
2024-02-19T13:05:11.023Z,4.85
2024-02-19T13:07:38.217Z,4.72
2024-02-19T13:10:06.421Z,4.10
2024-02-19T13:12:33.532Z,5.97
2024-02-19T13:15:01.946Z,11.60
2024-02-19T13:17:39.725Z,4.63
2024-02-19T13:20:11.656Z,4.43
2024-02-19T13:22:39.209Z,4.25
2024-02-19T13:25:08.281Z,4.18
2024-02-19T13:27:35.397Z,3.85
2024-02-19T13:30:02.778Z,4.00
2024-02-19T13:32:31.791Z,4.00
2024-02-19T13:34:59.366Z,3.92
2024-02-19T13:37:27.274Z,4.40
2024-02-19T13:39:55.245Z,4.50
2024-02-19T13:42:22.394Z,4.50
2024-02-19T13:44:49.614Z,4.47
2024-02-19T13:47:16.822Z,6.40
2024-02-19T13:49:46.985Z,6.85
2024-02-19T13:52:14.308Z,5.93
2024-02-19T13:54:41.403Z,5.03
2024-02-19T13:57:09.148Z,4.97
2024-02-19T13:59:36.200Z,5.60
2024-02-19T14:02:03.234Z,5.68
2024-02-19T14:04:30.446Z,4.00
2024-02-19T14:06:59.343Z,4.97
2024-02-19T14:09:26.590Z,5.00
2024-02-19T14:11:54.296Z,5.25
2024-02-19T14:14:21.431Z,5.40
2024-02-19T14:16:48.558Z,5.75
2024-02-19T14:19:16.294Z,5.60
2024-02-19T14:21:43.495Z,5.40
2024-02-19T14:24:11.917Z,5.57
2024-02-19T14:26:38.908Z,5.85
2024-02-19T14:29:09.247Z,5.43
2024-02-19T14:31:36.604Z,6.30
2024-02-19T14:34:04.993Z,5.85
2024-02-19T14:36:32.174Z,5.82
2024-02-19T14:38:59.218Z,6.97
2024-02-19T14:41:27.572Z,6.38
2024-02-19T14:43:55.691Z,7.47
2024-02-19T14:46:23.095Z,5.80
2024-02-19T14:48:50.502Z,5.88
2024-02-19T14:51:20.488Z,6.35
2024-02-19T14:53:51.915Z,5.50
2024-02-19T14:56:19.250Z,5.55
2024-02-19T14:58:47.640Z,6.03
2024-02-19T15:01:14.943Z,6.55
2024-02-19T15:03:42.066Z,8.80
2024-02-19T15:06:09.291Z,8.15
2024-02-19T15:08:36.789Z,6.47
2024-02-19T15:11:05.127Z,7.35
2024-02-19T15:13:32.196Z,7.00
2024-02-19T15:16:00.700Z,8.38
2024-02-19T15:18:28.157Z,15.55
2024-02-19T15:20:55.265Z,16.02
2024-02-19T15:23:22.332Z,7.45
2024-02-19T15:25:52.788Z,6.75
2024-02-19T15:28:20.069Z,8.05
2024-02-19T15:30:47.458Z,7.65
2024-02-19T15:33:15.941Z,13.13
2024-02-19T15:35:43.286Z,11.02
2024-02-19T15:38:13.292Z,7.88
2024-02-19T15:40:40.757Z,9.20
2024-02-19T15:43:08.136Z,12.52
2024-02-19T15:45:36.828Z,13.95
2024-02-19T15:48:04.251Z,15.45
2024-02-19T15:50:33.686Z,15.35
2024-02-19T15:53:06.251Z,10.88
2024-02-19T15:55:34.346Z,9.20
2024-02-19T15:58:01.552Z,34.67
2024-02-19T16:00:28.578Z,31.13
2024-02-19T16:02:55.583Z,24.25
2024-02-19T16:05:22.646Z,12.85
2024-02-19T16:07:51.244Z,10.88
2024-02-19T16:10:18.543Z,13.30
2024-02-19T16:12:46.266Z,13.80
2024-02-19T16:15:13.478Z,14.35
2024-02-19T16:17:41.172Z,14.30
2024-02-19T16:20:09.326Z,12.95
2024-02-19T16:22:36.828Z,8.50
2024-02-19T16:25:08.505Z,10.65
2024-02-19T16:27:36.847Z,11.75
2024-02-19T16:30:06.495Z,8.10
2024-02-19T16:32:35.341Z,12.93
2024-02-19T16:35:02.628Z,10.45
2024-02-19T16:37:29.984Z,10.82
2024-02-19T16:39:57.014Z,11.90
2024-02-19T16:42:25.418Z,13.60
2024-02-19T16:44:52.837Z,12.05
2024-02-19T16:47:19.803Z,17.40
2024-02-19T16:49:47.386Z,47.00
2024-02-19T16:52:15.160Z,37.85
2024-02-19T16:54:42.199Z,75.95
2024-02-19T16:57:09.157Z,125.60
2024-02-19T16:59:38.058Z,20.05
2024-02-19T17:02:05.335Z,26.50
2024-02-19T17:04:32.604Z,35.67
2024-02-19T17:06:59.916Z,12.70
2024-02-19T17:09:27.047Z,27.38
2024-02-19T17:11:54.636Z,18.75
2024-02-19T17:14:21.767Z,16.70
2024-02-19T17:16:53.836Z,126.13
2024-02-19T17:19:21.548Z,53.13
2024-02-19T17:21:48.755Z,50.53
2024-02-19T17:24:15.858Z,9.18
2024-02-19T17:26:44.491Z,34.28
2024-02-19T17:29:11.873Z,35.67
2024-02-19T17:31:40.449Z,11.32
2024-02-19T17:34:09.283Z,16.20
2024-02-19T17:36:36.357Z,7.40
2024-02-19T17:39:07.776Z,11.85
2024-02-19T17:41:35.057Z,12.07
2024-02-19T17:44:02.436Z,12.80
2024-02-19T17:46:29.797Z,9.65
2024-02-19T17:48:57.096Z,9.07
2024-02-19T17:51:29.747Z,9.57
2024-02-19T17:53:59.044Z,13.15
2024-02-19T17:56:29.690Z,6.93
2024-02-19T17:58:57.161Z,5.65
2024-02-19T18:01:26.945Z,6.05
2024-02-19T18:03:54.568Z,7.05
2024-02-19T18:06:22.081Z,6.55
2024-02-19T18:08:52.244Z,8.40
2024-02-19T18:11:19.542Z,7.00
2024-02-19T18:13:46.944Z,8.23
2024-02-19T18:16:14.170Z,7.95
2024-02-19T18:18:43.287Z,8.02
2024-02-19T18:21:10.716Z,8.30
2024-02-19T18:23:37.952Z,6.90
2024-02-19T18:26:07.105Z,6.55
2024-02-19T18:28:36.187Z,7.13
2024-02-19T18:31:05.514Z,7.63
2024-02-19T18:33:32.864Z,7.90
2024-02-19T18:36:00.051Z,7.45
2024-02-19T18:38:27.413Z,6.80
2024-02-19T18:40:56.115Z,7.03
2024-02-19T18:43:26.856Z,7.85
2024-02-19T18:45:54.463Z,7.95
2024-02-19T18:48:22.583Z,7.78
2024-02-19T18:50:49.709Z,7.93
2024-02-19T18:53:16.967Z,9.02
2024-02-19T18:55:44.988Z,10.55
2024-02-19T18:58:11.980Z,10.50
2024-02-19T19:00:40.690Z,10.02
2024-02-19T19:03:08.064Z,12.15
2024-02-19T19:05:35.704Z,12.32
2024-02-19T19:08:03.292Z,12.15
2024-02-19T19:10:30.372Z,13.75
2024-02-19T19:12:57.472Z,14.27
2024-02-19T19:15:24.867Z,15.07
2024-02-19T19:17:53.301Z,14.23
2024-02-19T19:20:20.895Z,14.43
2024-02-19T19:22:48.153Z,14.38
2024-02-19T19:25:15.394Z,18.20
2024-02-19T19:27:42.449Z,16.33
2024-02-19T19:30:10.240Z,18.42
2024-02-19T19:32:37.278Z,19.30
2024-02-19T19:35:06.821Z,20.88
2024-02-19T19:37:34.160Z,23.35
2024-02-19T19:40:05.263Z,23.05
2024-02-19T19:42:32.329Z,22.48
2024-02-19T19:44:59.319Z,20.20
2024-02-19T19:47:26.398Z,20.02
2024-02-19T19:49:53.628Z,19.55
2024-02-19T19:52:23.897Z,18.35
2024-02-19T19:54:51.087Z,18.67
2024-02-19T19:57:18.085Z,17.33
2024-02-19T19:59:49.257Z,18.40
2024-02-19T20:02:17.238Z,17.85
2024-02-19T20:04:44.821Z,17.10
2024-02-19T20:07:12.022Z,17.50
2024-02-19T20:09:42.562Z,17.48
2024-02-19T20:12:13.079Z,19.02
2024-02-19T20:14:40.750Z,20.27
2024-02-19T20:17:07.842Z,19.77
2024-02-19T20:19:34.958Z,19.17
2024-02-19T20:22:02.061Z,19.65
2024-02-19T20:24:29.064Z,17.50
2024-02-19T20:27:00.652Z,19.23
2024-02-19T20:29:27.785Z,18.77
2024-02-19T20:31:54.821Z,19.77
2024-02-19T20:34:22.123Z,18.55
2024-02-19T20:36:49.362Z,19.60
2024-02-19T20:39:16.501Z,20.55
2024-02-19T20:41:44.089Z,21.20
2024-02-19T20:44:12.495Z,20.23
2024-02-19T20:46:40.455Z,21.02
2024-02-19T20:49:07.629Z,21.30
2024-02-19T20:51:34.665Z,21.95
2024-02-19T20:54:01.703Z,21.60
2024-02-19T20:56:30.329Z,21.17
2024-02-19T20:58:57.592Z,20.35
2024-02-19T21:01:26.460Z,18.02
2024-02-19T21:03:55.737Z,18.17
2024-02-19T21:06:22.803Z,18.25
2024-02-19T21:08:49.987Z,18.10
2024-02-19T21:11:17.230Z,15.98
2024-02-19T21:13:44.278Z,16.90
2024-02-19T21:16:11.518Z,17.30
2024-02-19T21:18:47.115Z,16.50
2024-02-19T21:21:18.262Z,21.42
2024-02-19T21:23:54.810Z,16.73
2024-02-19T21:26:22.064Z,16.13
2024-02-19T21:28:50.564Z,16.40
2024-02-19T21:31:17.975Z,15.63
2024-02-19T21:33:47.128Z,18.00
2024-02-19T21:36:14.279Z,49.53
2024-02-19T21:38:41.634Z,52.70
2024-02-19T21:41:08.823Z,79.53
2024-02-19T21:43:35.968Z,56.45
2024-02-19T21:46:03.329Z,35.90
2024-02-19T21:48:30.631Z,28.63
2024-02-19T21:50:59.362Z,24.52
2024-02-19T21:53:26.356Z,20.35
2024-02-19T21:55:53.356Z,20.52
2024-02-19T21:58:20.601Z,19.88
2024-02-19T22:00:47.789Z,20.65
2024-02-19T22:03:14.889Z,20.85
2024-02-19T22:05:41.973Z,21.08
2024-02-19T22:08:10.996Z,19.52
2024-02-19T22:10:38.613Z,19.35
2024-02-19T22:13:05.923Z,17.88
2024-02-19T22:15:33.027Z,15.63
2024-02-19T22:18:00.563Z,13.95
2024-02-19T22:20:27.647Z,15.63
2024-02-19T22:22:54.690Z,14.65
2024-02-19T22:25:23.255Z,15.52
2024-02-19T22:27:53.981Z,16.55
2024-02-19T22:30:21.197Z,15.30
2024-02-19T22:32:48.257Z,16.83
2024-02-19T22:35:15.704Z,16.90
2024-02-19T22:37:42.829Z,15.13
2024-02-19T22:40:11.297Z,14.95
2024-02-19T22:42:39.721Z,15.05
2024-02-19T22:45:08.058Z,15.45
2024-02-19T22:47:35.271Z,15.50
2024-02-19T22:50:05.561Z,15.20
2024-02-19T22:52:33.206Z,15.35
2024-02-19T22:55:01.482Z,14.55
2024-02-19T22:57:28.464Z,15.30
2024-02-19T22:59:57.253Z,14.77
2024-02-19T23:02:24.437Z,14.00
2024-02-19T23:04:51.484Z,15.48
2024-02-19T23:07:18.743Z,14.65
2024-02-19T23:09:45.796Z,16.05
2024-02-19T23:12:12.984Z,15.27
2024-02-19T23:14:40.144Z,16.40
2024-02-19T23:17:08.677Z,16.83
2024-02-19T23:19:35.772Z,15.77
2024-02-19T23:22:02.899Z,16.42
2024-02-19T23:24:30.085Z,15.70
2024-02-19T23:26:57.075Z,15.48
2024-02-19T23:29:24.142Z,17.92
2024-02-19T23:31:51.132Z,15.88
2024-02-19T23:34:20.461Z,16.48
2024-02-19T23:36:47.607Z,15.60
2024-02-19T23:39:14.725Z,16.17
2024-02-19T23:41:41.703Z,20.33
2024-02-19T23:44:08.741Z,26.63
2024-02-19T23:46:35.925Z,22.23
2024-02-19T23:49:03.071Z,20.42
2024-02-19T23:51:31.507Z,18.70
2024-02-19T23:53:59.512Z,20.15
2024-02-19T23:56:26.567Z,17.27
2024-02-19T23:58:53.614Z,19.13
